Warren, AR (71671)

1:37 PM CST on March 05, 2015 (GMT -0600)
Hwy 172 | Change Station
CLOSE
Current Station
Personal Weather Station
Location: Monticello, AR
Elevation: 246 ft
Nearby Weather Stations
Active Advisory: Flood Warning

Elev 246 ft 33.55 °N, 91.82 °W | Updated 7 minutes ago

Clear
Clear
35.6 °F
Feels Like 36 °F
N
0.0
Wind Variable Wind from South
Gusts 0.0 mph

Today
High -- | Low -- °F
--% Chance of Precip.
Yesterday
High -- | Low -- °F
Precip. -- in
6:31 AM 6:08 PM
Full, 100% visible
Pressure 30.53 in
Visibility 10.0 miles
Clouds Clear
Windchill 36 °F
Dew Point 7 °F
Humidity 30%
Rainfall in
Snow Depth Not available.
UV 7 out of 12
Pollen 1.00 out of 12
Air Quality Not available.
Flu Activity Not available.
METAR KLLQ 051853Z AUTO 01012G21KT 10SM CLR 01/M12 A3053 RMK AO2 SLP339 T00061117 $

More Conditions Fewer Conditions

Pressure 30.53 in
Visibility 10.0 miles
Clouds Clear
Windchill 36 °F
Dew Point 7 °F
Humidity 30%
Rainfall in
Snow Depth Not available.
UV 7 out of 12
Pollen 1.00 out of 12
Air Quality Not available.
Flu Activity Not available.
METAR KLLQ 051853Z AUTO 01012G21KT 10SM CLR 01/M12 A3053 RMK AO2 SLP339 T00061117 $

More Conditions Fewer Conditions

10-Day Weather Forecast

Almanac

Astronomy

Mar. 05, 2015 Rise Set
Actual Time
Civil Twilight
Nautical Twilight
Astronomical Twilight
Moon
Length of Visible Light
Length of Day
Tomorrow will be .
, % of the Moon is Illuminated

Today's Extremes

State Highs State Lows

Community

WunderPhotos

Upload Photos

1,802,925 photos uploaded!

WunderBlogs® & News

Nearby

Air Quality

  Air Quality AQ Index Pollutant
Not available.

Snow Depth

Station Depth Elevation

Earthquake Activity

City Distance Mag. Time & Date
Minimum magnitude displayed is 2.5.

Coastal Water Temperatures

Place Temperature

Nearby Weather Stations

Flood Warning
Statement as of 11:39 AM CST on March 05, 2015

The Flood Warning continues for
the Ouachita River at Thatcher l&d.
* Until further notice... or until the warning is cancelled.
* At 6:00 am Thursday the stage was 80.2 feet.
* Minor flooding is occurring and minor flooding is forecast.
* Flood stage is 79.0 feet.
* Forecast... the river will continue rising to near 83.6 feet by
Tuesday morning.
* Impacts at 80.0 feet... levee gates should be closed to prevent the
river from backing into Calion Lake. Access to oil and gas rigs and
to Timber is flooded. There is wide coverage of flooding in the river
bottoms.




             Fld observed forecast 7 am
location stg stg day time Fri Sat sun Mon Tue

Ouachita River
Thatcher l 79 80.2 Thu 06 am 81.2 82.0 82.6 83.1 83.6




Lat... Lon 3311 9223 3323 9236 3329 9261 3338 9247
3333 9226 3322 9212